Time;durP1;ratioP1;P1;durP2;ratioP2;P2;SDS_P1;SDS_P2;PMS_P1;PMS_P2;Temp;Humidity;BMP_temperature;BMP_pressure;BME280_temperature;BME280_humidity;BME280_pressure;Samples;Min_cycle;Max_cycle;Signal;HPM_P1;HPM_P2
2023/08/08 00:00:25;;;;;;;7.95;1.98;;;;;;;12.51;100.00;101120.69;10457033;28;20037;-65
2023/08/08 00:05:26;;;;;;;7.53;2.60;;;;;;;12.48;100.00;101107.41;10457168;28;20451;-66
2023/08/08 00:10:26;;;;;;;3.53;2.35;;;;;;;12.47;100.00;101111.25;10457057;28;20045;-67
2023/08/08 00:15:27;;;;;;;5.90;2.63;;;;;;;12.53;100.00;101110.22;10438760;28;20041;-66
2023/08/08 00:20:27;;;;;;;2.78;1.95;;;;;;;12.55;100.00;101110.78;10450267;28;20049;-65
2023/08/08 00:25:28;;;;;;;7.32;2.40;;;;;;;12.49;100.00;101106.31;10452852;28;20051;-66
2023/08/08 00:30:28;;;;;;;5.63;2.60;;;;;;;12.44;100.00;101106.25;10452311;28;20063;-66
2023/08/08 00:35:29;;;;;;;6.55;2.50;;;;;;;12.42;100.00;101105.69;10454836;28;20052;-66
2023/08/08 00:40:29;;;;;;;6.22;2.22;;;;;;;12.29;100.00;101093.97;10449838;28;20079;-66
2023/08/08 00:45:30;;;;;;;8.35;2.78;;;;;;;12.28;100.00;101097.00;10446542;28;20056;-66
2023/08/08 00:50:30;;;;;;;6.50;2.83;;;;;;;12.27;100.00;101082.34;10448625;28;20040;-66
2023/08/08 00:55:31;;;;;;;5.43;2.55;;;;;;;12.28;100.00;101084.03;10422114;28;20041;-66
2023/08/08 01:00:31;;;;;;;5.38;3.22;;;;;;;12.27;100.00;101082.34;10435062;28;20037;-66
2023/08/08 01:05:37;;;;;;;6.72;2.80;;;;;;;12.26;100.00;101077.09;10455232;28;20068;-64
2023/08/08 01:10:39;;;;;;;6.20;2.93;;;;;;;12.24;100.00;101074.59;10455663;28;20041;-66
2023/08/08 01:15:39;;;;;;;7.35;2.65;;;;;;;12.19;100.00;101063.50;10454251;28;20561;-66
2023/08/08 01:20:40;;;;;;;6.75;2.85;;;;;;;12.18;100.00;101070.13;10428264;28;20397;-65
2023/08/08 01:25:40;;;;;;;10.07;3.00;;;;;;;12.11;100.00;101064.81;10460607;28;20077;-66
2023/08/08 01:30:42;;;;;;;6.43;3.22;;;;;;;12.12;100.00;101068.41;10462072;28;20033;-66
2023/08/08 01:35:45;;;;;;;6.32;2.58;;;;;;;12.13;100.00;101067.28;10459599;28;20079;-66
2023/08/08 01:40:45;;;;;;;5.82;2.60;;;;;;;12.09;100.00;101042.16;10443884;28;20086;-66
2023/08/08 01:45:46;;;;;;;9.32;3.50;;;;;;;12.06;100.00;101044.59;10438903;28;20114;-65
2023/08/08 01:50:46;;;;;;;7.78;3.17;;;;;;;12.04;100.00;101035.75;10445556;28;20051;-66
2023/08/08 01:55:47;;;;;;;4.60;3.00;;;;;;;12.06;100.00;101041.84;10463561;28;20040;-66
2023/08/08 02:00:47;;;;;;;7.20;3.05;;;;;;;12.06;100.00;101034.38;10457886;28;20049;-66
2023/08/08 02:05:48;;;;;;;5.40;3.25;;;;;;;12.12;100.00;101032.50;10460900;28;20048;-66
2023/08/08 02:10:48;;;;;;;5.65;3.15;;;;;;;12.22;100.00;101027.09;10443612;28;20037;-66
2023/08/08 02:15:49;;;;;;;5.70;2.97;;;;;;;12.28;100.00;101027.97;10461542;28;20041;-66
2023/08/08 02:20:49;;;;;;;5.65;2.92;;;;;;;12.31;100.00;101014.47;10454585;28;20041;-66
2023/08/08 02:25:50;;;;;;;6.18;2.92;;;;;;;12.35;100.00;101002.91;10461155;28;20052;-65
2023/08/08 02:30:50;;;;;;;8.20;2.92;;;;;;;12.40;100.00;101003.81;10457666;28;20067;-65
2023/08/08 02:35:51;;;;;;;9.57;3.30;;;;;;;12.43;100.00;100999.66;10459179;28;20045;-66
2023/08/08 02:40:51;;;;;;;5.47;3.30;;;;;;;12.48;100.00;100996.94;10456960;28;20543;-63
2023/08/08 02:45:52;;;;;;;10.45;3.53;;;;;;;12.51;100.00;100985.38;10438452;28;20052;-66
2023/08/08 02:50:52;;;;;;;14.52;3.67;;;;;;;12.58;100.00;100980.44;10460502;28;20041;-66
2023/08/08 02:55:53;;;;;;;6.72;2.95;;;;;;;12.69;100.00;100981.34;10457785;28;20045;-65
2023/08/08 03:00:53;;;;;;;6.35;3.17;;;;;;;12.80;100.00;100973.97;10458721;28;20033;-66
2023/08/08 03:05:54;;;;;;;3.92;2.75;;;;;;;12.77;100.00;100968.97;10458156;28;20036;-66
2023/08/08 03:10:54;;;;;;;5.95;2.90;;;;;;;12.80;100.00;100968.44;10456940;28;20086;-66
2023/08/08 03:15:56;;;;;;;7.22;2.65;;;;;;;12.74;100.00;100973.09;10458853;28;20048;-65
2023/08/08 03:20:57;;;;;;;4.78;2.47;;;;;;;12.73;100.00;100976.94;10459130;28;20041;-66
2023/08/08 03:25:57;;;;;;;6.65;2.75;;;;;;;12.70;100.00;100972.78;10457247;28;20044;-64
2023/08/08 03:30:58;;;;;;;4.28;2.60;;;;;;;12.67;100.00;100973.34;10456164;28;20122;-66
2023/08/08 03:35:58;;;;;;;5.28;3.05;;;;;;;12.60;100.00;100967.19;10458570;28;20032;-64
2023/08/08 03:40:58;;;;;;;5.40;2.70;;;;;;;12.68;100.00;100975.00;10457231;28;20048;-66
2023/08/08 03:45:59;;;;;;;4.18;2.38;;;;;;;12.74;100.00;100972.28;10458636;28;20044;-65
2023/08/08 03:50:59;;;;;;;4.95;2.30;;;;;;;12.67;100.00;100967.81;10452541;28;20048;-65
2023/08/08 03:56:00;;;;;;;4.40;2.63;;;;;;;12.57;100.00;100962.22;10458080;28;20032;-66
2023/08/08 04:01:01;;;;;;;4.38;2.38;;;;;;;12.52;100.00;100953.88;10457756;28;20048;-65
2023/08/08 04:06:01;;;;;;;6.78;2.40;;;;;;;12.41;100.00;100952.16;10448163;28;20037;-65
2023/08/08 04:11:01;;;;;;;3.67;2.67;;;;;;;12.34;100.00;100955.16;10456993;28;20052;-65
2023/08/08 04:16:02;;;;;;;8.55;2.70;;;;;;;12.30;100.00;100948.50;10455658;28;20044;-66
2023/08/08 04:21:03;;;;;;;3.97;2.65;;;;;;;12.25;100.00;100949.28;10454565;28;20087;-65
2023/08/08 04:26:04;;;;;;;6.05;3.13;;;;;;;12.25;100.00;100946.50;10455631;28;20043;-66
2023/08/08 04:31:04;;;;;;;5.10;2.33;;;;;;;12.25;100.00;100937.41;10454650;28;20106;-65
2023/08/08 04:36:05;;;;;;;5.15;2.30;;;;;;;12.36;100.00;100939.16;10456433;28;20048;-66
2023/08/08 04:41:05;;;;;;;10.32;2.30;;;;;;;12.35;100.00;100942.19;10455089;28;20034;-64
2023/08/08 04:46:06;;;;;;;4.70;2.15;;;;;;;12.37;100.00;100939.97;10456060;28;20045;-65
2023/08/08 04:51:06;;;;;;;4.07;1.77;;;;;;;12.27;100.00;100916.72;10452465;28;20041;-66
2023/08/08 04:56:07;;;;;;;5.80;1.95;;;;;;;12.43;100.00;100939.75;10436875;28;20052;-66
2023/08/08 05:01:11;;;;;;;4.80;2.05;;;;;;;12.51;100.00;100935.66;10461938;28;20512;-65
2023/08/08 05:06:12;;;;;;;3.78;1.65;;;;;;;12.66;100.00;100932.16;10462558;28;20045;-66
2023/08/08 05:11:12;;;;;;;8.65;1.80;;;;;;;12.85;100.00;100929.78;10463164;28;20033;-66
2023/08/08 05:16:13;;;;;;;4.05;1.92;;;;;;;12.94;100.00;100919.91;10446903;28;20037;-66
2023/08/08 05:21:13;;;;;;;7.15;1.42;;;;;;;13.05;100.00;100918.84;10442763;28;20063;-65
2023/08/08 05:26:14;;;;;;;5.20;1.80;;;;;;;13.09;100.00;100919.97;10463725;28;20416;-66
2023/08/08 05:31:15;;;;;;;8.10;2.20;;;;;;;13.17;100.00;100912.22;10456488;28;20090;-66
2023/08/08 05:36:15;;;;;;;9.40;2.88;;;;;;;13.23;100.00;100905.63;10461129;28;20041;-65
2023/08/08 05:41:16;;;;;;;5.18;1.52;;;;;;;13.27;100.00;100909.50;10455232;28;20040;-65
2023/08/08 05:46:16;;;;;;;6.00;1.48;;;;;;;13.36;100.00;100910.69;10462528;28;20102;-66
2023/08/08 05:51:17;;;;;;;7.57;1.50;;;;;;;13.49;100.00;100915.69;10461417;28;20044;-66
2023/08/08 05:56:17;;;;;;;4.88;1.17;;;;;;;13.69;100.00;100919.63;10460464;28;20037;-66
2023/08/08 06:01:18;;;;;;;5.38;1.52;;;;;;;13.86;100.00;100911.88;10461339;28;20057;-65
2023/08/08 06:06:18;;;;;;;5.43;1.42;;;;;;;14.07;100.00;100914.66;10461634;28;20044;-65
2023/08/08 06:11:19;;;;;;;6.35;1.58;;;;;;;14.33;100.00;100919.06;10462055;28;20067;-65
2023/08/08 06:16:20;;;;;;;7.07;3.05;;;;;;;14.45;100.00;100916.03;10461874;28;20052;-65
2023/08/08 06:21:21;;;;;;;7.30;1.17;;;;;;;14.28;100.00;100883.09;10455985;28;20045;-66
2023/08/08 06:26:22;;;;;;;6.50;1.58;;;;;;;14.55;100.00;100929.00;10459343;28;20063;-68
2023/08/08 06:31:22;;;;;;;5.90;1.08;;;;;;;14.81;100.00;100917.91;10452285;28;20053;-66
2023/08/08 06:36:23;;;;;;;5.47;1.20;;;;;;;15.07;100.00;100918.66;10461087;28;20041;-67
2023/08/08 06:41:23;;;;;;;2.45;0.98;;;;;;;15.26;100.00;100910.53;10458884;28;20097;-65
2023/08/08 06:46:24;;;;;;;9.93;1.50;;;;;;;15.15;100.00;100859.81;10459869;28;20040;-66
2023/08/08 06:51:25;;;;;;;3.15;0.77;;;;;;;15.54;100.00;100911.75;10459200;28;20048;-67
2023/08/08 06:56:26;;;;;;;3.50;1.10;;;;;;;15.27;100.00;100871.38;10457345;28;20065;-67
2023/08/08 07:01:26;;;;;;;3.00;0.75;;;;;;;15.73;100.00;100900.84;10446201;28;20037;-68
2023/08/08 07:06:27;;;;;;;3.15;0.90;;;;;;;15.78;100.00;100906.34;10454791;28;20037;-68
2023/08/08 07:11:28;;;;;;;5.20;1.08;;;;;;;15.97;100.00;100906.47;10442626;28;20048;-67
2023/08/08 07:16:28;;;;;;;3.78;1.02;;;;;;;16.13;100.00;100883.03;10444560;28;20037;-67
2023/08/08 07:21:29;;;;;;;6.80;1.20;;;;;;;16.34;100.00;100889.22;10436636;28;20554;-66
2023/08/08 07:26:29;;;;;;;2.72;0.70;;;;;;;16.23;100.00;100884.88;10452389;28;20037;-67
2023/08/08 07:31:30;;;;;;;3.35;0.70;;;;;;;16.29;100.00;100871.78;10455723;28;20048;-68
2023/08/08 07:36:30;;;;;;;4.35;0.98;;;;;;;16.24;100.00;100880.97;10443026;28;20094;-68
2023/08/08 07:41:31;;;;;;;8.45;1.77;;;;;;;16.45;100.00;100870.47;10444593;28;20037;-67
2023/08/08 07:46:31;;;;;;;7.40;1.15;;;;;;;16.26;100.00;100872.34;10441298;28;20052;-68
2023/08/08 07:51:32;;;;;;;4.45;1.65;;;;;;;16.60;100.00;100861.16;10424413;28;20041;-67
2023/08/08 07:56:32;;;;;;;2.72;0.65;;;;;;;16.87;100.00;100855.03;10442269;28;20032;-68
2023/08/08 08:01:33;;;;;;;2.33;0.60;;;;;;;17.12;100.00;100856.66;10439780;28;20098;-65
2023/08/08 08:06:33;;;;;;;6.88;1.20;;;;;;;17.54;100.00;100848.53;10441970;28;20063;-67
2023/08/08 08:11:34;;;;;;;3.38;0.63;;;;;;;17.17;100.00;100858.53;10442107;28;20040;-66
2023/08/08 08:16:35;;;;;;;4.32;0.60;;;;;;;16.86;100.00;100856.16;10455213;28;20033;-69
2023/08/08 08:21:35;;;;;;;5.90;0.73;;;;;;;16.85;100.00;100859.25;10447271;28;20075;-67
2023/08/08 08:26:36;;;;;;;3.22;0.73;;;;;;;16.97;100.00;100870.78;10441836;28;20072;-68
2023/08/08 08:31:38;;;;;;;7.18;1.67;;;;;;;16.94;100.00;100857.44;10433728;28;20045;-65
2023/08/08 08:36:38;;;;;;;3.28;0.47;;;;;;;16.91;100.00;100864.44;10436470;28;20050;-68
2023/08/08 08:41:39;;;;;;;2.72;0.50;;;;;;;17.06;100.00;100868.97;10445282;28;20077;-67
2023/08/08 08:46:39;;;;;;;3.53;0.68;;;;;;;17.40;100.00;100840.13;10456082;28;20128;-67
2023/08/08 08:51:40;;;;;;;2.92;0.55;;;;;;;17.64;100.00;100850.34;10427090;28;20087;-68
2023/08/08 08:56:41;;;;;;;5.90;0.70;;;;;;;17.27;100.00;100852.00;10442906;28;20045;-69
2023/08/08 09:01:42;;;;;;;4.50;0.90;;;;;;;16.96;100.00;100846.03;10455789;28;20063;-68
2023/08/08 09:06:43;;;;;;;6.07;0.63;;;;;;;17.68;100.00;100845.81;10453112;28;20045;-68
2023/08/08 09:11:48;;;;;;;3.15;0.50;;;;;;;17.68;100.00;100829.94;10432332;28;20090;-67
2023/08/08 09:16:49;;;;;;;3.28;0.50;;;;;;;17.59;100.00;100844.84;10455780;28;20049;-69
2023/08/08 09:21:50;;;;;;;9.80;1.10;;;;;;;17.48;100.00;100853.34;10447496;28;20041;-68
2023/08/08 09:26:50;;;;;;;1.77;0.40;;;;;;;17.67;100.00;100853.38;10455221;28;20045;-68
2023/08/08 09:31:51;;;;;;;6.72;1.77;;;;;;;18.07;100.00;100836.28;10429924;28;20481;-68
2023/08/08 09:36:52;;;;;;;4.10;0.50;;;;;;;17.88;100.00;100837.16;10455858;28;20048;-68
2023/08/08 09:41:52;;;;;;;6.47;0.93;;;;;;;17.93;100.00;100837.06;10454437;28;20043;-68
2023/08/08 09:46:53;;;;;;;2.28;0.60;;;;;;;18.28;100.00;100843.13;10461439;28;20041;-67
2023/08/08 09:51:53;;;;;;;3.97;0.70;;;;;;;17.62;100.00;100867.34;10461131;28;20043;-69
2023/08/08 09:56:54;;;;;;;4.97;0.77;;;;;;;17.90;100.00;100865.53;10458957;28;20047;-68
2023/08/08 10:01:54;;;;;;;3.70;0.57;;;;;;;17.89;100.00;100861.09;10427135;28;20045;-69
2023/08/08 10:06:55;;;;;;;7.10;1.20;;;;;;;18.19;100.00;100856.13;10458829;28;20041;-68
2023/08/08 10:11:55;;;;;;;2.85;0.70;;;;;;;18.51;100.00;100832.94;10462296;28;20064;-69
2023/08/08 10:16:56;;;;;;;2.65;0.80;;;;;;;19.10;100.00;100829.50;10460280;28;20041;-69
2023/08/08 10:22:06;;;;;;;3.15;0.70;;;;;;;18.66;100.00;100859.69;10455340;28;20037;-68
2023/08/08 10:27:06;;;;;;;3.60;0.60;;;;;;;17.51;100.00;100886.16;10459635;28;20110;-67
2023/08/08 10:32:08;;;;;;;2.78;0.60;;;;;;;17.59;100.00;100864.31;10460035;28;20108;-67
2023/08/08 10:37:15;;;;;;;2.90;0.80;;;;;;;17.19;100.00;100894.41;10461610;28;20037;-70
2023/08/08 10:42:18;;;;;;;2.13;0.45;;;;;;;15.50;100.00;100908.75;10459315;28;20044;-70
2023/08/08 10:47:33;;;;;;;3.20;1.35;;;;;;;14.78;100.00;100896.28;10460714;28;20041;-69
2023/08/08 10:52:58;;;;;;;3.08;0.88;;;;;;;14.82;100.00;100897.38;10459364;28;20041;-69
2023/08/08 10:58:15;;;;;;;2.38;0.77;;;;;;;15.38;100.00;100897.16;10457990;28;20065;-70
2023/08/08 11:03:15;;;;;;;3.85;0.60;;;;;;;16.41;100.00;100880.53;10453022;28;20043;-69
2023/08/08 11:08:16;;;;;;;3.85;0.80;;;;;;;16.65;100.00;100876.94;10457474;28;20044;-69
2023/08/08 11:13:16;;;;;;;6.03;1.08;;;;;;;16.45;100.00;100880.78;10441001;28;20037;-71
2023/08/08 11:18:17;;;;;;;1.90;0.80;;;;;;;17.46;100.00;100875.09;10453999;28;20052;-70
2023/08/08 11:23:18;;;;;;;3.80;0.60;;;;;;;17.65;100.00;100871.47;10457154;28;20045;-69
2023/08/08 11:28:19;;;;;;;3.63;0.65;;;;;;;17.59;100.00;100847.63;10459218;28;20041;-68
2023/08/08 11:33:19;;;;;;;2.03;0.80;;;;;;;18.09;100.00;100859.09;10458407;28;20082;-72
2023/08/08 11:38:20;;;;;;;3.45;0.90;;;;;;;18.97;100.00;100853.50;10449864;28;20036;-71
2023/08/08 11:43:20;;;;;;;3.08;0.60;;;;;;;18.84;100.00;100841.25;10455039;28;20033;-70
2023/08/08 11:48:21;;;;;;;1.65;0.50;;;;;;;18.72;100.00;100824.16;10455807;28;20041;-70
2023/08/08 11:53:23;;;;;;;2.72;0.50;;;;;;;19.01;100.00;100840.59;10449668;28;20041;-72
2023/08/08 11:58:26;;;;;;;2.95;0.80;;;;;;;19.17;100.00;100834.69;10479717;28;20037;-71
2023/08/08 12:03:27;;;;;;;4.50;0.55;;;;;;;20.10;100.00;100845.31;10419946;28;20045;-71
2023/08/08 12:08:29;;;;;;;2.58;0.57;;;;;;;19.79;100.00;100837.72;10416042;28;20452;-70
2023/08/08 12:13:30;;;;;;;2.40;0.50;;;;;;;18.90;100.00;100859.53;10414181;28;20397;-69
2023/08/08 12:18:31;;;;;;;3.83;0.43;;;;;;;19.79;100.00;100840.50;10415362;28;20048;-68
2023/08/08 12:23:32;;;;;;;4.53;0.60;;;;;;;20.43;100.00;100829.03;10406878;28;20038;-68
2023/08/08 12:28:32;;;;;;;4.90;1.50;;;;;;;20.41;100.00;100848.13;10409780;28;20075;-69
2023/08/08 12:33:33;;;;;;;1.60;0.60;;;;;;;20.61;100.00;100857.09;10418170;28;20092;-70
2023/08/08 12:38:33;;;;;;;2.72;0.65;;;;;;;21.33;100.00;100839.00;10453109;28;20053;-67
2023/08/08 12:43:34;;;;;;;2.05;0.40;;;;;;;20.73;97.93;100810.59;10456364;28;20033;-70
2023/08/08 12:48:35;;;;;;;2.38;0.50;;;;;;;19.49;100.00;100839.25;10456150;28;20037;-69
2023/08/08 12:53:35;;;;;;;1.33;0.30;;;;;;;18.66;100.00;100875.59;10461826;28;20059;-69
2023/08/08 12:58:35;;;;;;;2.17;0.50;;;;;;;19.19;100.00;100872.31;10479434;28;20052;-70
2023/08/08 13:03:36;;;;;;;5.35;0.50;;;;;;;20.18;100.00;100858.53;10471306;28;20557;-70
2023/08/08 13:08:36;;;;;;;4.80;0.52;;;;;;;20.38;100.00;100861.91;10472257;28;20485;-70
2023/08/08 13:13:37;;;;;;;2.08;0.50;;;;;;;19.77;100.00;100858.72;10477371;28;20037;-69
2023/08/08 13:18:37;;;;;;;2.15;1.00;;;;;;;20.93;100.00;100864.31;10448923;28;20096;-70
2023/08/08 13:23:38;;;;;;;3.90;1.45;;;;;;;21.45;100.00;100853.22;10421852;28;20045;-71
2023/08/08 13:28:38;;;;;;;2.13;0.47;;;;;;;21.35;100.00;100851.56;10418630;28;20038;-68
2023/08/08 13:33:39;;;;;;;3.45;0.90;;;;;;;19.45;100.00;100883.75;10456310;28;20088;-68
2023/08/08 13:38:39;;;;;;;6.82;0.70;;;;;;;19.18;100.00;100870.63;10463541;28;20645;-69
2023/08/08 13:43:40;;;;;;;2.88;0.70;;;;;;;19.89;100.00;100857.00;10444619;28;20049;-69
2023/08/08 13:48:40;;;;;;;3.55;0.57;;;;;;;20.35;98.16;100853.00;10446618;28;20037;-69
2023/08/08 13:53:41;;;;;;;1.58;0.50;;;;;;;21.20;97.44;100870.78;10449234;28;20029;-70
2023/08/08 13:58:41;;;;;;;2.67;0.57;;;;;;;21.12;93.52;100861.22;10447340;28;20053;-67
2023/08/08 14:03:42;;;;;;;1.52;0.47;;;;;;;21.98;96.04;100884.06;10447155;28;20048;-70
2023/08/08 14:08:42;;;;;;;2.50;0.60;;;;;;;22.25;92.91;100864.06;10446075;28;20033;-68
2023/08/08 14:13:43;;;;;;;1.77;0.45;;;;;;;22.43;92.87;100875.22;10447097;28;20068;-68
2023/08/08 14:18:43;;;;;;;3.33;0.82;;;;;;;20.94;95.00;100891.16;10453917;28;20033;-67
2023/08/08 14:23:44;;;;;;;4.13;1.02;;;;;;;19.88;100.00;100916.81;10460903;28;20045;-69
2023/08/08 14:28:44;;;;;;;3.25;0.60;;;;;;;20.61;99.35;100887.88;10451405;28;20073;-69
2023/08/08 14:33:45;;;;;;;3.88;0.80;;;;;;;21.30;97.45;100887.28;10460863;28;20056;-68
2023/08/08 14:38:45;;;;;;;6.65;1.00;;;;;;;21.86;92.65;100882.72;10459600;28;20405;-68
2023/08/08 14:43:46;;;;;;;4.88;0.60;;;;;;;21.37;93.32;100898.81;10458982;28;20044;-68
2023/08/08 14:48:46;;;;;;;3.13;0.70;;;;;;;21.39;96.20;100907.72;10460258;28;20115;-69
2023/08/08 14:53:47;;;;;;;3.15;0.63;;;;;;;21.30;93.01;100893.69;10460217;28;20048;-70
2023/08/08 14:58:47;;;;;;;3.50;0.43;;;;;;;21.43;94.36;100886.34;10460583;28;20049;-70
2023/08/08 15:03:48;;;;;;;2.42;0.50;;;;;;;21.05;90.33;100881.28;10458336;28;20055;-70
2023/08/08 15:08:49;;;;;;;2.63;0.50;;;;;;;21.29;89.14;100896.81;10459498;28;20044;-70
2023/08/08 15:13:50;;;;;;;1.10;0.55;;;;;;;21.77;90.54;100899.53;10451258;28;20044;-70
2023/08/08 15:18:50;;;;;;;3.78;0.50;;;;;;;21.38;92.12;100927.66;10458696;28;20056;-67
2023/08/08 15:23:51;;;;;;;2.78;0.60;;;;;;;21.11;95.08;100930.38;10460400;28;20151;-71
2023/08/08 15:28:51;;;;;;;2.60;0.73;;;;;;;21.60;96.99;100940.72;10457947;28;20052;-70
2023/08/08 15:33:52;;;;;;;8.13;2.80;;;;;;;21.52;94.15;100934.81;10453275;28;20037;-71
2023/08/08 15:38:52;;;;;;;5.25;1.17;;;;;;;20.26;95.72;100950.00;10458284;28;20088;-71
2023/08/08 15:43:52;;;;;;;5.30;0.75;;;;;;;20.91;93.57;100926.19;10448850;28;20044;-69
2023/08/08 15:48:53;;;;;;;6.07;0.75;;;;;;;20.49;90.50;100914.44;10450202;28;20072;-70
2023/08/08 15:53:53;;;;;;;2.67;0.57;;;;;;;21.45;88.52;100928.84;10457347;28;20040;-68
2023/08/08 15:58:54;;;;;;;3.72;0.88;;;;;;;20.80;88.23;100929.63;10456403;28;20072;-69
2023/08/08 16:03:54;;;;;;;2.78;0.50;;;;;;;20.92;85.99;100921.44;10455662;28;20071;-69
2023/08/08 16:08:55;;;;;;;4.68;1.20;;;;;;;21.08;84.97;100931.03;10457329;28;20029;-71
2023/08/08 16:13:55;;;;;;;4.20;1.02;;;;;;;20.60;87.36;100947.78;10452867;28;20052;-70
2023/08/08 16:18:56;;;;;;;6.15;0.70;;;;;;;20.27;87.82;100934.84;10456936;28;20048;-69
2023/08/08 16:23:56;;;;;;;5.15;0.60;;;;;;;21.71;87.55;100936.47;10456710;28;20142;-68
2023/08/08 16:28:57;;;;;;;3.80;0.82;;;;;;;21.24;85.56;100947.38;10452940;28;20041;-69
2023/08/08 16:33:57;;;;;;;2.65;0.60;;;;;;;21.11;83.74;100932.38;10443777;28;20033;-69
2023/08/08 16:38:57;;;;;;;3.38;0.47;;;;;;;20.40;84.55;100937.91;10452821;28;20067;-69
2023/08/08 16:44:02;;;;;;;4.50;1.08;;;;;;;20.22;84.97;100943.38;10455984;28;20052;-71
2023/08/08 16:49:03;;;;;;;8.35;0.70;;;;;;;19.38;86.89;100944.75;10455089;28;20096;-69
2023/08/08 16:54:04;;;;;;;3.45;0.60;;;;;;;18.54;92.40;100965.31;10439623;28;20060;-70
2023/08/08 16:59:04;;;;;;;2.22;0.70;;;;;;;17.88;92.95;100967.22;10465769;28;20040;-67
2023/08/08 17:04:05;;;;;;;2.30;0.70;;;;;;;17.43;94.55;100961.97;10462330;28;20040;-68
2023/08/08 17:09:05;;;;;;;5.70;1.02;;;;;;;17.36;97.86;100972.63;10462387;28;20037;-68
2023/08/08 17:14:06;;;;;;;1.27;0.57;;;;;;;17.15;100.00;100986.78;10446793;28;20127;-68
2023/08/08 17:19:06;;;;;;;2.40;0.57;;;;;;;16.85;100.00;100984.38;10451887;28;20048;-68
2023/08/08 17:24:07;;;;;;;4.00;0.82;;;;;;;16.68;100.00;100993.94;10461462;28;20037;-68
2023/08/08 17:29:07;;;;;;;2.10;0.60;;;;;;;16.60;100.00;100989.03;10456984;28;20037;-69
2023/08/08 17:34:08;;;;;;;1.80;0.50;;;;;;;16.50;100.00;100984.38;10443955;28;20070;-68
2023/08/08 17:39:08;;;;;;;4.18;0.68;;;;;;;16.38;100.00;100986.72;10461480;28;20477;-69
2023/08/08 17:44:09;;;;;;;7.65;0.90;;;;;;;16.33;100.00;100982.03;10457401;28;20401;-68
2023/08/08 17:49:09;;;;;;;1.88;0.50;;;;;;;16.22;100.00;100987.94;10441937;28;20038;-68
2023/08/08 17:54:10;;;;;;;2.72;0.50;;;;;;;16.11;100.00;100976.09;10470171;28;20033;-67
2023/08/08 17:59:11;;;;;;;7.00;1.15;;;;;;;15.96;100.00;100988.13;10457744;28;20438;-66
2023/08/08 18:04:12;;;;;;;6.13;0.70;;;;;;;15.79;100.00;100980.16;10462583;28;20063;-68
2023/08/08 18:09:12;;;;;;;4.82;1.25;;;;;;;15.60;100.00;100984.69;10451222;28;20033;-68
2023/08/08 18:14:13;;;;;;;2.90;0.60;;;;;;;15.52;100.00;100997.22;10480309;28;20033;-69
2023/08/08 18:19:15;;;;;;;2.83;0.60;;;;;;;15.36;100.00;100981.75;10471054;28;20037;-67
2023/08/08 18:24:15;;;;;;;3.97;0.68;;;;;;;15.36;100.00;100988.16;10481959;28;20040;-66
2023/08/08 18:29:16;;;;;;;2.30;0.70;;;;;;;15.32;100.00;100987.88;10431655;28;20039;-67
2023/08/08 18:34:16;;;;;;;2.03;0.50;;;;;;;15.27;100.00;100985.09;10486093;28;20275;-67
2023/08/08 18:39:17;;;;;;;2.10;0.60;;;;;;;15.21;100.00;100993.75;10480490;28;20098;-67
2023/08/08 18:44:18;;;;;;;1.85;0.60;;;;;;;15.04;100.00;100988.53;10479833;28;20094;-68
2023/08/08 18:49:18;;;;;;;3.03;0.80;;;;;;;14.90;100.00;100986.34;10479681;28;20036;-65
2023/08/08 18:54:19;;;;;;;2.85;0.65;;;;;;;14.81;100.00;100995.50;10484702;28;20041;-66
2023/08/08 18:59:20;;;;;;;4.38;0.60;;;;;;;14.67;100.00;100992.47;10485068;28;20040;-67
2023/08/08 19:04:20;;;;;;;3.92;0.70;;;;;;;14.50;100.00;101001.88;10479548;28;20182;-68
2023/08/08 19:09:21;;;;;;;3.80;0.65;;;;;;;14.36;100.00;100991.63;10483040;28;20066;-67
2023/08/08 19:14:21;;;;;;;2.78;0.50;;;;;;;14.19;100.00;100986.38;10478704;28;20056;-67
2023/08/08 19:19:22;;;;;;;3.53;0.63;;;;;;;14.07;100.00;101003.25;10478860;28;20041;-68
2023/08/08 19:24:23;;;;;;;1.40;0.55;;;;;;;13.93;100.00;100994.63;10483261;28;20497;-67
2023/08/08 19:29:23;;;;;;;2.50;0.60;;;;;;;13.81;100.00;100992.13;10480176;28;20467;-67
2023/08/08 19:34:24;;;;;;;2.70;0.70;;;;;;;13.69;100.00;100997.06;10481856;28;20051;-68
2023/08/08 19:39:24;;;;;;;7.40;0.88;;;;;;;13.59;100.00;100999.81;10483121;28;20041;-67
2023/08/08 19:44:25;;;;;;;3.55;0.73;;;;;;;13.46;100.00;100996.44;10480168;28;20041;-68
2023/08/08 19:49:26;;;;;;;5.63;0.70;;;;;;;13.34;100.00;101003.31;10475486;28;20045;-68
2023/08/08 19:54:27;;;;;;;2.92;0.75;;;;;;;13.20;100.00;101016.75;10471533;28;20052;-67
2023/08/08 19:59:27;;;;;;;4.40;0.70;;;;;;;13.11;100.00;101016.44;10480895;28;20115;-68
2023/08/08 20:04:28;;;;;;;3.95;0.88;;;;;;;13.07;100.00;101020.84;10482543;28;20079;-67
2023/08/08 20:09:29;;;;;;;3.45;0.57;;;;;;;12.99;100.00;101027.69;10472285;28;20099;-67
2023/08/08 20:14:30;;;;;;;2.65;0.70;;;;;;;12.91;100.00;101026.25;10462684;28;20135;-67
2023/08/08 20:19:31;;;;;;;5.32;0.88;;;;;;;12.84;100.00;101035.91;10463685;28;20037;-67
2023/08/08 20:24:32;;;;;;;3.08;0.75;;;;;;;12.78;100.00;101036.94;10457894;28;20060;-67
2023/08/08 20:29:32;;;;;;;3.80;0.73;;;;;;;12.66;100.00;101037.97;10461974;28;20444;-67
2023/08/08 20:34:33;;;;;;;2.20;0.73;;;;;;;12.58;100.00;101043.97;10476790;28;20136;-66
2023/08/08 20:39:33;;;;;;;2.50;0.60;;;;;;;12.53;100.00;101043.94;10477189;28;20037;-68
2023/08/08 20:44:34;;;;;;;1.50;0.63;;;;;;;12.50;100.00;101047.22;10478582;28;20044;-68
2023/08/08 20:49:35;;;;;;;5.30;1.33;;;;;;;12.45;100.00;101058.22;10476844;28;20037;-67
2023/08/08 20:54:35;;;;;;;2.47;0.57;;;;;;;12.38;100.00;101057.59;10481693;28;20075;-67
2023/08/08 20:59:36;;;;;;;4.90;1.00;;;;;;;12.30;100.00;101062.50;10479787;28;20044;-66
2023/08/08 21:04:36;;;;;;;3.90;0.60;;;;;;;12.20;100.00;101050.53;10470668;28;20040;-66
2023/08/08 21:09:36;;;;;;;4.70;0.65;;;;;;;12.06;100.00;101044.59;10460800;28;20065;-68
2023/08/08 21:14:37;;;;;;;2.47;0.65;;;;;;;11.96;100.00;101030.69;10441283;28;20041;-67
2023/08/08 21:19:38;;;;;;;2.08;0.75;;;;;;;11.90;100.00;101036.13;10458373;28;20033;-67
2023/08/08 21:24:38;;;;;;;1.80;0.77;;;;;;;11.81;100.00;101036.84;10475223;28;20052;-67
2023/08/08 21:29:39;;;;;;;1.75;0.80;;;;;;;11.72;100.00;101036.47;10470515;28;20040;-67
2023/08/08 21:34:39;;;;;;;4.97;0.90;;;;;;;11.66;100.00;101048.53;10470948;28;20539;-67
2023/08/08 21:39:40;;;;;;;5.75;1.13;;;;;;;11.60;100.00;101038.53;10473837;28;20531;-67
2023/08/08 21:44:40;;;;;;;6.05;0.70;;;;;;;11.54;100.00;101036.81;10455239;28;20050;-67
2023/08/08 21:49:41;;;;;;;2.50;0.95;;;;;;;11.49;100.00;101035.66;10462118;28;20041;-67
2023/08/08 21:54:41;;;;;;;2.33;0.82;;;;;;;11.47;100.00;101032.31;10483108;28;20037;-66
2023/08/08 21:59:42;;;;;;;3.80;1.25;;;;;;;11.41;100.00;101041.63;10475080;28;20037;-67
2023/08/08 22:04:42;;;;;;;5.22;1.10;;;;;;;11.38;100.00;101044.03;10486838;28;20037;-67
2023/08/08 22:09:43;;;;;;;4.07;1.45;;;;;;;11.31;100.00;101044.25;10486863;28;20052;-67
2023/08/08 22:14:44;;;;;;;4.53;1.00;;;;;;;11.26;100.00;101046.91;10483062;28;20052;-67
2023/08/08 22:19:44;;;;;;;1.85;1.10;;;;;;;11.21;100.00;101038.59;10485316;28;20041;-66
2023/08/08 22:24:45;;;;;;;6.40;1.25;;;;;;;11.19;100.00;101057.28;10484555;28;20037;-67
2023/08/08 22:29:45;;;;;;;4.18;1.30;;;;;;;11.21;100.00;101049.59;10483246;28;20044;-67
2023/08/08 22:34:46;;;;;;;2.58;0.80;;;;;;;11.26;100.00;101041.41;10489500;28;20060;-67
2023/08/08 22:39:46;;;;;;;8.00;1.40;;;;;;;11.29;100.00;101040.91;10482583;28;20474;-67
2023/08/08 22:44:47;;;;;;;3.28;0.90;;;;;;;11.28;100.00;101033.72;10483638;28;20052;-67